Walthall, Mississippi
Current Conditions -  °F | °C
As of 5:35 PM on Friday 19 Dec 2014 (Local Time) from KSTF Reporting Station
Light Rain Light Rain  
Wind Chill: 45°   Ceiling: 6500
Heat Index: 45°   Visibility: 7mi
Dew Point: 41°   Wind: 0mph
Humidity: 87%   Direction: NA
Pressure: 30.19"   Gusts: NA
Location:  33.61°N, 89.28°W
Report Text: KSTF 192335Z AUTO 00000KT 7SM -RA OVC065 07/05 A3019 RMK AO2 P0002
Loading
Personal Weather Stations






























Interactive Weather Map New forecast layout! Learn more

10-Day Weather Forecast

Advertisements
Track Severe Weather on mobile